sensor_id;sensor_type;location;lat;lon;timestamp;P1;durP1;ratioP1;P2;durP2;ratioP2
57846;SDS011;43675;50.030;21.952;2024-02-26T00:00:20;50.00;;;45.30;;
57846;SDS011;43675;50.030;21.952;2024-02-26T00:03:07;48.30;;;43.80;;
57846;SDS011;43675;50.030;21.952;2024-02-26T00:05:33;46.20;;;41.80;;
57846;SDS011;43675;50.030;21.952;2024-02-26T00:08:00;45.00;;;40.80;;
57846;SDS011;43675;50.030;21.952;2024-02-26T00:10:27;45.20;;;41.00;;
57846;SDS011;43675;50.030;21.952;2024-02-26T00:12:53;49.70;;;45.00;;
57846;SDS011;43675;50.030;21.952;2024-02-26T00:15:20;51.50;;;46.60;;
57846;SDS011;43675;50.030;21.952;2024-02-26T00:17:47;50.80;;;46.00;;
57846;SDS011;43675;50.030;21.952;2024-02-26T00:20:13;48.30;;;44.00;;
57846;SDS011;43675;50.030;21.952;2024-02-26T00:22:40;49.50;;;45.00;;
57846;SDS011;43675;50.030;21.952;2024-02-26T00:25:07;50.00;;;45.30;;
57846;SDS011;43675;50.030;21.952;2024-02-26T00:27:40;50.60;;;45.80;;
57846;SDS011;43675;50.030;21.952;2024-02-26T00:30:07;50.70;;;45.90;;
57846;SDS011;43675;50.030;21.952;2024-02-26T00:32:34;49.70;;;45.00;;
57846;SDS011;43675;50.030;21.952;2024-02-26T00:35:01;51.70;;;46.70;;
57846;SDS011;43675;50.030;21.952;2024-02-26T00:37:27;48.60;;;44.20;;
57846;SDS011;43675;50.030;21.952;2024-02-26T00:39:54;47.50;;;43.10;;
57846;SDS011;43675;50.030;21.952;2024-02-26T00:42:27;46.00;;;41.80;;
57846;SDS011;43675;50.030;21.952;2024-02-26T00:44:54;45.90;;;41.70;;
57846;SDS011;43675;50.030;21.952;2024-02-26T00:47:27;45.00;;;40.90;;
57846;SDS011;43675;50.030;21.952;2024-02-26T00:49:53;43.10;;;39.10;;
57846;SDS011;43675;50.030;21.952;2024-02-26T00:52:20;45.20;;;41.00;;
57846;SDS011;43675;50.030;21.952;2024-02-26T00:54:47;44.70;;;40.60;;
57846;SDS011;43675;50.030;21.952;2024-02-26T00:57:13;44.60;;;40.80;;
57846;SDS011;43675;50.030;21.952;2024-02-26T00:59:40;43.60;;;39.60;;
57846;SDS011;43675;50.030;21.952;2024-02-26T01:02:07;43.60;;;39.70;;
57846;SDS011;43675;50.030;21.952;2024-02-26T01:04:34;46.50;;;42.20;;
57846;SDS011;43675;50.030;21.952;2024-02-26T01:07:00;47.50;;;43.00;;
57846;SDS011;43675;50.030;21.952;2024-02-26T01:09:27;48.30;;;43.80;;
57846;SDS011;43675;50.030;21.952;2024-02-26T01:11:53;52.20;;;47.10;;
57846;SDS011;43675;50.030;21.952;2024-02-26T01:14:20;53.90;;;48.30;;
57846;SDS011;43675;50.030;21.952;2024-02-26T01:16:47;54.30;;;49.00;;
57846;SDS011;43675;50.030;21.952;2024-02-26T01:19:13;56.70;;;51.00;;
57846;SDS011;43675;50.030;21.952;2024-02-26T01:21:40;58.60;;;52.60;;
57846;SDS011;43675;50.030;21.952;2024-02-26T01:24:06;54.60;;;49.30;;
57846;SDS011;43675;50.030;21.952;2024-02-26T01:26:33;53.90;;;48.60;;
57846;SDS011;43675;50.030;21.952;2024-02-26T01:28:59;49.60;;;44.80;;
57846;SDS011;43675;50.030;21.952;2024-02-26T01:31:26;50.70;;;45.80;;
57846;SDS011;43675;50.030;21.952;2024-02-26T01:33:53;46.70;;;42.40;;
57846;SDS011;43675;50.030;21.952;2024-02-26T01:36:19;48.30;;;43.20;;
57846;SDS011;43675;50.030;21.952;2024-02-26T01:38:53;47.70;;;43.20;;
57846;SDS011;43675;50.030;21.952;2024-02-26T01:41:19;48.30;;;43.80;;
57846;SDS011;43675;50.030;21.952;2024-02-26T01:43:46;49.40;;;44.70;;
57846;SDS011;43675;50.030;21.952;2024-02-26T01:46:14;51.40;;;46.30;;
57846;SDS011;43675;50.030;21.952;2024-02-26T01:48:41;50.60;;;45.70;;
57846;SDS011;43675;50.030;21.952;2024-02-26T01:51:09;49.30;;;44.40;;
57846;SDS011;43675;50.030;21.952;2024-02-26T01:53:37;48.50;;;43.90;;
57846;SDS011;43675;50.030;21.952;2024-02-26T01:56:11;48.50;;;43.90;;
57846;SDS011;43675;50.030;21.952;2024-02-26T01:58:39;49.10;;;44.40;;
57846;SDS011;43675;50.030;21.952;2024-02-26T02:01:06;49.70;;;44.90;;
57846;SDS011;43675;50.030;21.952;2024-02-26T02:03:32;47.70;;;43.20;;
57846;SDS011;43675;50.030;21.952;2024-02-26T02:05:59;47.50;;;43.00;;
57846;SDS011;43675;50.030;21.952;2024-02-26T02:08:26;45.10;;;41.00;;
57846;SDS011;43675;50.030;21.952;2024-02-26T02:10:53;47.40;;;42.80;;
57846;SDS011;43675;50.030;21.952;2024-02-26T02:13:20;47.80;;;43.30;;
57846;SDS011;43675;50.030;21.952;2024-02-26T02:15:46;47.50;;;43.20;;
57846;SDS011;43675;50.030;21.952;2024-02-26T02:18:13;49.20;;;44.40;;
57846;SDS011;43675;50.030;21.952;2024-02-26T02:20:40;47.00;;;42.60;;
57846;SDS011;43675;50.030;21.952;2024-02-26T02:23:06;46.20;;;41.70;;
57846;SDS011;43675;50.030;21.952;2024-02-26T02:25:33;44.20;;;40.10;;
57846;SDS011;43675;50.030;21.952;2024-02-26T02:27:59;47.30;;;42.80;;
57846;SDS011;43675;50.030;21.952;2024-02-26T02:30:33;46.30;;;41.90;;
57846;SDS011;43675;50.030;21.952;2024-02-26T02:33:00;45.60;;;41.00;;
57846;SDS011;43675;50.030;21.952;2024-02-26T02:35:27;45.30;;;41.00;;
57846;SDS011;43675;50.030;21.952;2024-02-26T02:37:55;41.30;;;37.60;;
57846;SDS011;43675;50.030;21.952;2024-02-26T02:40:23;39.90;;;36.40;;
57846;SDS011;43675;50.030;21.952;2024-02-26T02:42:50;39.00;;;35.50;;
57846;SDS011;43675;50.030;21.952;2024-02-26T02:45:16;41.20;;;37.50;;
57846;SDS011;43675;50.030;21.952;2024-02-26T02:47:43;40.70;;;37.00;;
57846;SDS011;43675;50.030;21.952;2024-02-26T02:50:10;39.50;;;35.80;;
57846;SDS011;43675;50.030;21.952;2024-02-26T02:52:36;39.00;;;35.50;;
57846;SDS011;43675;50.030;21.952;2024-02-26T02:55:03;36.90;;;33.70;;
57846;SDS011;43675;50.030;21.952;2024-02-26T02:57:36;38.50;;;35.00;;
57846;SDS011;43675;50.030;21.952;2024-02-26T03:00:03;37.70;;;34.40;;
57846;SDS011;43675;50.030;21.952;2024-02-26T03:02:30;36.00;;;32.90;;
57846;SDS011;43675;50.030;21.952;2024-02-26T03:04:57;36.20;;;33.00;;
57846;SDS011;43675;50.030;21.952;2024-02-26T03:07:23;33.50;;;30.70;;
57846;SDS011;43675;50.030;21.952;2024-02-26T03:09:50;32.90;;;30.30;;
57846;SDS011;43675;50.030;21.952;2024-02-26T03:12:23;30.70;;;28.20;;
57846;SDS011;43675;50.030;21.952;2024-02-26T03:14:49;29.90;;;27.50;;
57846;SDS011;43675;50.030;21.952;2024-02-26T03:17:16;30.70;;;28.10;;
57846;SDS011;43675;50.030;21.952;2024-02-26T03:19:43;29.10;;;26.60;;
57846;SDS011;43675;50.030;21.952;2024-02-26T03:22:10;28.30;;;25.90;;
57846;SDS011;43675;50.030;21.952;2024-02-26T03:24:37;28.90;;;26.40;;
57846;SDS011;43675;50.030;21.952;2024-02-26T03:27:03;28.10;;;25.90;;
57846;SDS011;43675;50.030;21.952;2024-02-26T03:29:30;28.10;;;25.80;;
57846;SDS011;43675;50.030;21.952;2024-02-26T03:32:03;28.50;;;26.20;;
57846;SDS011;43675;50.030;21.952;2024-02-26T03:34:31;28.20;;;26.00;;
57846;SDS011;43675;50.030;21.952;2024-02-26T03:36:59;28.30;;;26.00;;
57846;SDS011;43675;50.030;21.952;2024-02-26T03:39:25;29.10;;;26.60;;
57846;SDS011;43675;50.030;21.952;2024-02-26T03:41:52;29.70;;;27.20;;
57846;SDS011;43675;50.030;21.952;2024-02-26T03:44:19;29.50;;;27.10;;
57846;SDS011;43675;50.030;21.952;2024-02-26T03:46:45;30.20;;;27.50;;
57846;SDS011;43675;50.030;21.952;2024-02-26T03:49:12;30.60;;;28.00;;
57846;SDS011;43675;50.030;21.952;2024-02-26T03:51:38;30.00;;;27.50;;
57846;SDS011;43675;50.030;21.952;2024-02-26T03:54:05;29.20;;;26.70;;
57846;SDS011;43675;50.030;21.952;2024-02-26T03:56:32;29.60;;;27.20;;
57846;SDS011;43675;50.030;21.952;2024-02-26T03:59:05;29.50;;;27.10;;
57846;SDS011;43675;50.030;21.952;2024-02-26T04:01:31;29.60;;;27.20;;
57846;SDS011;43675;50.030;21.952;2024-02-26T04:03:58;28.80;;;26.40;;
57846;SDS011;43675;50.030;21.952;2024-02-26T04:06:25;28.30;;;26.00;;
57846;SDS011;43675;50.030;21.952;2024-02-26T04:08:51;28.60;;;26.30;;
57846;SDS011;43675;50.030;21.952;2024-02-26T04:11:18;28.50;;;26.20;;
57846;SDS011;43675;50.030;21.952;2024-02-26T04:13:45;27.50;;;25.20;;
57846;SDS011;43675;50.030;21.952;2024-02-26T04:16:11;27.10;;;24.90;;
57846;SDS011;43675;50.030;21.952;2024-02-26T04:18:44;27.20;;;25.00;;
57846;SDS011;43675;50.030;21.952;2024-02-26T04:21:11;26.80;;;24.70;;
57846;SDS011;43675;50.030;21.952;2024-02-26T04:23:37;26.60;;;24.40;;
57846;SDS011;43675;50.030;21.952;2024-02-26T04:26:04;26.80;;;24.70;;
57846;SDS011;43675;50.030;21.952;2024-02-26T04:28:31;27.10;;;24.90;;
57846;SDS011;43675;50.030;21.952;2024-02-26T04:30:58;26.80;;;24.60;;
57846;SDS011;43675;50.030;21.952;2024-02-26T04:33:24;27.30;;;25.20;;
57846;SDS011;43675;50.030;21.952;2024-02-26T04:35:51;27.10;;;24.90;;
57846;SDS011;43675;50.030;21.952;2024-02-26T04:38:17;28.90;;;26.60;;
57846;SDS011;43675;50.030;21.952;2024-02-26T04:40:44;29.80;;;27.40;;
57846;SDS011;43675;50.030;21.952;2024-02-26T04:43:11;27.30;;;25.10;;
57846;SDS011;43675;50.030;21.952;2024-02-26T04:45:37;27.70;;;25.40;;
57846;SDS011;43675;50.030;21.952;2024-02-26T04:48:04;27.70;;;25.50;;
57846;SDS011;43675;50.030;21.952;2024-02-26T04:50:31;27.30;;;25.20;;
57846;SDS011;43675;50.030;21.952;2024-02-26T04:52:58;26.80;;;24.70;;
57846;SDS011;43675;50.030;21.952;2024-02-26T04:55:25;25.70;;;23.70;;
57846;SDS011;43675;50.030;21.952;2024-02-26T04:57:51;26.50;;;24.40;;
57846;SDS011;43675;50.030;21.952;2024-02-26T05:00:18;26.20;;;24.20;;
57846;SDS011;43675;50.030;21.952;2024-02-26T05:02:44;26.20;;;24.10;;
57846;SDS011;43675;50.030;21.952;2024-02-26T05:05:11;26.20;;;24.20;;
57846;SDS011;43675;50.030;21.952;2024-02-26T05:07:44;27.10;;;24.90;;
57846;SDS011;43675;50.030;21.952;2024-02-26T05:10:11;26.50;;;24.30;;
57846;SDS011;43675;50.030;21.952;2024-02-26T05:12:37;26.30;;;24.30;;
57846;SDS011;43675;50.030;21.952;2024-02-26T05:15:04;27.10;;;24.70;;
57846;SDS011;43675;50.030;21.952;2024-02-26T05:17:31;26.40;;;24.30;;
57846;SDS011;43675;50.030;21.952;2024-02-26T05:19:58;26.50;;;24.10;;
57846;SDS011;43675;50.030;21.952;2024-02-26T05:22:25;25.80;;;23.70;;
57846;SDS011;43675;50.030;21.952;2024-02-26T05:24:51;24.90;;;22.90;;
57846;SDS011;43675;50.030;21.952;2024-02-26T05:27:18;24.40;;;22.60;;
57846;SDS011;43675;50.030;21.952;2024-02-26T05:29:44;23.50;;;21.80;;
57846;SDS011;43675;50.030;21.952;2024-02-26T05:32:11;23.30;;;21.50;;
57846;SDS011;43675;50.030;21.952;2024-02-26T05:34:38;23.10;;;21.40;;
57846;SDS011;43675;50.030;21.952;2024-02-26T05:37:04;22.80;;;21.20;;
57846;SDS011;43675;50.030;21.952;2024-02-26T05:39:31;22.80;;;21.20;;
57846;SDS011;43675;50.030;21.952;2024-02-26T05:41:57;21.80;;;20.20;;
57846;SDS011;43675;50.030;21.952;2024-02-26T05:44:26;21.50;;;19.80;;
57846;SDS011;43675;50.030;21.952;2024-02-26T05:46:53;21.00;;;19.50;;
57846;SDS011;43675;50.030;21.952;2024-02-26T05:49:26;21.10;;;19.40;;
57846;SDS011;43675;50.030;21.952;2024-02-26T05:51:53;20.80;;;19.20;;
57846;SDS011;43675;50.030;21.952;2024-02-26T05:54:20;20.80;;;19.10;;
57846;SDS011;43675;50.030;21.952;2024-02-26T05:56:46;20.60;;;19.00;;
57846;SDS011;43675;50.030;21.952;2024-02-26T05:59:13;20.90;;;19.30;;
57846;SDS011;43675;50.030;21.952;2024-02-26T06:01:40;21.10;;;19.40;;
57846;SDS011;43675;50.030;21.952;2024-02-26T06:04:06;20.40;;;18.80;;
57846;SDS011;43675;50.030;21.952;2024-02-26T06:06:33;20.90;;;19.30;;
57846;SDS011;43675;50.030;21.952;2024-02-26T06:09:00;20.60;;;19.00;;
57846;SDS011;43675;50.030;21.952;2024-02-26T06:11:26;20.10;;;18.50;;
57846;SDS011;43675;50.030;21.952;2024-02-26T06:13:53;19.90;;;18.40;;
57846;SDS011;43675;50.030;21.952;2024-02-26T06:16:19;20.10;;;18.60;;
57846;SDS011;43675;50.030;21.952;2024-02-26T06:18:46;20.60;;;19.00;;
57846;SDS011;43675;50.030;21.952;2024-02-26T06:21:19;21.40;;;19.80;;
57846;SDS011;43675;50.030;21.952;2024-02-26T06:23:46;20.70;;;19.20;;
57846;SDS011;43675;50.030;21.952;2024-02-26T06:26:12;21.30;;;19.70;;
57846;SDS011;43675;50.030;21.952;2024-02-26T06:28:39;21.90;;;20.10;;
57846;SDS011;43675;50.030;21.952;2024-02-26T06:31:06;21.60;;;20.00;;
57846;SDS011;43675;50.030;21.952;2024-02-26T06:33:39;21.80;;;20.20;;
57846;SDS011;43675;50.030;21.952;2024-02-26T06:36:06;23.20;;;21.40;;
57846;SDS011;43675;50.030;21.952;2024-02-26T06:38:33;23.00;;;21.30;;
57846;SDS011;43675;50.030;21.952;2024-02-26T06:40:59;23.30;;;21.50;;
57846;SDS011;43675;50.030;21.952;2024-02-26T06:43:26;24.60;;;22.70;;
57846;SDS011;43675;50.030;21.952;2024-02-26T06:45:52;25.40;;;23.40;;
57846;SDS011;43675;50.030;21.952;2024-02-26T06:48:19;24.50;;;22.60;;
57846;SDS011;43675;50.030;21.952;2024-02-26T06:50:45;23.60;;;21.80;;
57846;SDS011;43675;50.030;21.952;2024-02-26T06:53:12;22.10;;;20.40;;
57846;SDS011;43675;50.030;21.952;2024-02-26T06:55:39;22.10;;;20.40;;
57846;SDS011;43675;50.030;21.952;2024-02-26T06:58:05;24.10;;;22.30;;
57846;SDS011;43675;50.030;21.952;2024-02-26T07:00:32;25.90;;;23.90;;
57846;SDS011;43675;50.030;21.952;2024-02-26T07:02:59;27.40;;;25.00;;
57846;SDS011;43675;50.030;21.952;2024-02-26T07:05:25;27.10;;;24.60;;
57846;SDS011;43675;50.030;21.952;2024-02-26T07:07:52;25.50;;;23.20;;
57846;SDS011;43675;50.030;21.952;2024-02-26T07:10:19;24.10;;;22.10;;
57846;SDS011;43675;50.030;21.952;2024-02-26T07:12:45;23.20;;;21.40;;
57846;SDS011;43675;50.030;21.952;2024-02-26T07:15:12;25.40;;;23.40;;
57846;SDS011;43675;50.030;21.952;2024-02-26T07:17:38;31.00;;;28.60;;
57846;SDS011;43675;50.030;21.952;2024-02-26T07:20:05;35.30;;;32.20;;
57846;SDS011;43675;50.030;21.952;2024-02-26T07:22:39;29.80;;;27.30;;
57846;SDS011;43675;50.030;21.952;2024-02-26T07:25:06;26.50;;;24.50;;
57846;SDS011;43675;50.030;21.952;2024-02-26T07:27:33;25.00;;;23.10;;
57846;SDS011;43675;50.030;21.952;2024-02-26T07:29:59;24.10;;;22.10;;
57846;SDS011;43675;50.030;21.952;2024-02-26T07:32:32;24.90;;;22.70;;
57846;SDS011;43675;50.030;21.952;2024-02-26T07:34:59;23.80;;;21.80;;
57846;SDS011;43675;50.030;21.952;2024-02-26T07:37:25;24.80;;;22.80;;
57846;SDS011;43675;50.030;21.952;2024-02-26T07:39:52;24.30;;;22.20;;
57846;SDS011;43675;50.030;21.952;2024-02-26T07:42:18;24.40;;;22.50;;
57846;SDS011;43675;50.030;21.952;2024-02-26T07:44:45;25.00;;;22.80;;
57846;SDS011;43675;50.030;21.952;2024-02-26T07:47:12;25.20;;;23.20;;
57846;SDS011;43675;50.030;21.952;2024-02-26T07:49:39;24.80;;;22.60;;
57846;SDS011;43675;50.030;21.952;2024-02-26T07:52:06;25.60;;;23.50;;
57846;SDS011;43675;50.030;21.952;2024-02-26T07:54:32;25.80;;;23.60;;
57846;SDS011;43675;50.030;21.952;2024-02-26T07:56:59;25.70;;;23.50;;
57846;SDS011;43675;50.030;21.952;2024-02-26T07:59:26;26.00;;;23.50;;
57846;SDS011;43675;50.030;21.952;2024-02-26T08:01:52;25.40;;;23.20;;
57846;SDS011;43675;50.030;21.952;2024-02-26T08:04:19;26.10;;;24.00;;
57846;SDS011;43675;50.030;21.952;2024-02-26T08:06:46;26.30;;;24.20;;
57846;SDS011;43675;50.030;21.952;2024-02-26T08:09:12;26.20;;;23.70;;
57846;SDS011;43675;50.030;21.952;2024-02-26T08:11:39;25.80;;;23.70;;
57846;SDS011;43675;50.030;21.952;2024-02-26T08:14:06;24.90;;;22.80;;
57846;SDS011;43675;50.030;21.952;2024-02-26T08:16:32;26.30;;;23.90;;
57846;SDS011;43675;50.030;21.952;2024-02-26T08:18:59;27.20;;;24.70;;
57846;SDS011;43675;50.030;21.952;2024-02-26T08:21:25;28.40;;;25.70;;
57846;SDS011;43675;50.030;21.952;2024-02-26T08:23:52;27.40;;;24.70;;
57846;SDS011;43675;50.030;21.952;2024-02-26T08:26:19;26.90;;;24.50;;
57846;SDS011;43675;50.030;21.952;2024-02-26T08:28:52;25.50;;;23.30;;
57846;SDS011;43675;50.030;21.952;2024-02-26T08:31:19;24.00;;;21.90;;
57846;SDS011;43675;50.030;21.952;2024-02-26T08:33:45;23.20;;;21.20;;
57846;SDS011;43675;50.030;21.952;2024-02-26T08:36:12;23.50;;;21.50;;
57846;SDS011;43675;50.030;21.952;2024-02-26T08:38:39;24.00;;;21.90;;
57846;SDS011;43675;50.030;21.952;2024-02-26T08:41:05;24.30;;;22.20;;
57846;SDS011;43675;50.030;21.952;2024-02-26T08:43:32;24.00;;;21.80;;
57846;SDS011;43675;50.030;21.952;2024-02-26T08:45:59;23.30;;;21.20;;
57846;SDS011;43675;50.030;21.952;2024-02-26T08:48:25;23.20;;;20.90;;
57846;SDS011;43675;50.030;21.952;2024-02-26T08:50:52;23.30;;;21.00;;
57846;SDS011;43675;50.030;21.952;2024-02-26T08:53:19;22.80;;;20.80;;
57846;SDS011;43675;50.030;21.952;2024-02-26T08:55:46;23.10;;;21.30;;
57846;SDS011;43675;50.030;21.952;2024-02-26T08:58:13;23.10;;;21.10;;
57846;SDS011;43675;50.030;21.952;2024-02-26T09:00:46;22.90;;;20.80;;
57846;SDS011;43675;50.030;21.952;2024-02-26T09:03:13;23.30;;;21.30;;
57846;SDS011;43675;50.030;21.952;2024-02-26T09:05:39;23.70;;;21.60;;
57846;SDS011;43675;50.030;21.952;2024-02-26T09:08:06;23.00;;;21.00;;
57846;SDS011;43675;50.030;21.952;2024-02-26T09:10:33;23.00;;;21.00;;
57846;SDS011;43675;50.030;21.952;2024-02-26T09:13:00;23.60;;;21.40;;
57846;SDS011;43675;50.030;21.952;2024-02-26T09:15:33;23.50;;;21.30;;
57846;SDS011;43675;50.030;21.952;2024-02-26T09:18:00;23.70;;;21.60;;
57846;SDS011;43675;50.030;21.952;2024-02-26T09:20:26;23.10;;;21.20;;
57846;SDS011;43675;50.030;21.952;2024-02-26T09:22:53;23.50;;;21.40;;
57846;SDS011;43675;50.030;21.952;2024-02-26T09:25:19;23.20;;;21.20;;
57846;SDS011;43675;50.030;21.952;2024-02-26T09:27:46;23.90;;;21.70;;
57846;SDS011;43675;50.030;21.952;2024-02-26T09:30:13;23.20;;;21.20;;
57846;SDS011;43675;50.030;21.952;2024-02-26T09:32:40;23.40;;;21.30;;
57846;SDS011;43675;50.030;21.952;2024-02-26T09:35:07;24.00;;;21.80;;
57846;SDS011;43675;50.030;21.952;2024-02-26T09:37:33;23.30;;;21.30;;
57846;SDS011;43675;50.030;21.952;2024-02-26T09:40:00;23.20;;;21.00;;
57846;SDS011;43675;50.030;21.952;2024-02-26T09:42:33;22.60;;;20.70;;
57846;SDS011;43675;50.030;21.952;2024-02-26T09:45:01;22.60;;;20.60;;
57846;SDS011;43675;50.030;21.952;2024-02-26T09:47:32;22.00;;;20.10;;
57846;SDS011;43675;50.030;21.952;2024-02-26T09:49:59;22.80;;;20.70;;
57846;SDS011;43675;50.030;21.952;2024-02-26T09:52:27;22.50;;;20.40;;
57846;SDS011;43675;50.030;21.952;2024-02-26T09:54:55;22.00;;;20.10;;
57846;SDS011;43675;50.030;21.952;2024-02-26T09:57:21;22.20;;;20.20;;
57846;SDS011;43675;50.030;21.952;2024-02-26T09:59:48;21.50;;;19.70;;
57846;SDS011;43675;50.030;21.952;2024-02-26T10:02:16;21.30;;;19.40;;
57846;SDS011;43675;50.030;21.952;2024-02-26T10:04:52;22.10;;;19.90;;
57846;SDS011;43675;50.030;21.952;2024-02-26T10:07:20;21.60;;;19.70;;
57846;SDS011;43675;50.030;21.952;2024-02-26T10:09:47;21.40;;;19.40;;
57846;SDS011;43675;50.030;21.952;2024-02-26T10:12:14;21.80;;;19.80;;
57846;SDS011;43675;50.030;21.952;2024-02-26T10:14:42;21.50;;;19.30;;
57846;SDS011;43675;50.030;21.952;2024-02-26T10:17:09;21.60;;;19.50;;
57846;SDS011;43675;50.030;21.952;2024-02-26T10:19:36;21.10;;;19.40;;
57846;SDS011;43675;50.030;21.952;2024-02-26T10:22:03;21.30;;;19.40;;
57846;SDS011;43675;50.030;21.952;2024-02-26T10:24:30;20.10;;;18.40;;
57846;SDS011;43675;50.030;21.952;2024-02-26T10:26:57;21.40;;;19.40;;
57846;SDS011;43675;50.030;21.952;2024-02-26T10:29:24;21.40;;;19.60;;
57846;SDS011;43675;50.030;21.952;2024-02-26T10:31:52;20.90;;;19.10;;
57846;SDS011;43675;50.030;21.952;2024-02-26T10:34:19;21.40;;;19.50;;
57846;SDS011;43675;50.030;21.952;2024-02-26T10:36:46;20.70;;;18.90;;
57846;SDS011;43675;50.030;21.952;2024-02-26T10:39:13;24.50;;;22.00;;
57846;SDS011;43675;50.030;21.952;2024-02-26T10:41:41;23.90;;;21.60;;
57846;SDS011;43675;50.030;21.952;2024-02-26T10:44:11;22.90;;;20.70;;
57846;SDS011;43675;50.030;21.952;2024-02-26T10:46:42;20.70;;;18.80;;
57846;SDS011;43675;50.030;21.952;2024-02-26T10:49:13;18.80;;;17.40;;
57846;SDS011;43675;50.030;21.952;2024-02-26T10:51:41;20.00;;;18.20;;
57846;SDS011;43675;50.030;21.952;2024-02-26T10:54:12;19.90;;;18.10;;
57846;SDS011;43675;50.030;21.952;2024-02-26T10:56:42;20.00;;;18.30;;
57846;SDS011;43675;50.030;21.952;2024-02-26T10:59:09;20.20;;;18.50;;
57846;SDS011;43675;50.030;21.952;2024-02-26T11:01:42;20.30;;;18.20;;
57846;SDS011;43675;50.030;21.952;2024-02-26T11:04:09;19.40;;;17.70;;
57846;SDS011;43675;50.030;21.952;2024-02-26T11:06:37;19.70;;;18.00;;
57846;SDS011;43675;50.030;21.952;2024-02-26T11:09:04;19.20;;;17.60;;
57846;SDS011;43675;50.030;21.952;2024-02-26T11:11:32;19.10;;;17.50;;
57846;SDS011;43675;50.030;21.952;2024-02-26T11:14:00;19.60;;;17.90;;
57846;SDS011;43675;50.030;21.952;2024-02-26T11:16:29;19.00;;;17.50;;
57846;SDS011;43675;50.030;21.952;2024-02-26T11:18:56;20.10;;;18.30;;
57846;SDS011;43675;50.030;21.952;2024-02-26T11:21:30;19.00;;;17.40;;
57846;SDS011;43675;50.030;21.952;2024-02-26T11:23:57;18.60;;;17.20;;
57846;SDS011;43675;50.030;21.952;2024-02-26T11:26:24;19.20;;;17.50;;
57846;SDS011;43675;50.030;21.952;2024-02-26T11:28:53;19.30;;;17.50;;
57846;SDS011;43675;50.030;21.952;2024-02-26T11:31:20;19.20;;;17.50;;
57846;SDS011;43675;50.030;21.952;2024-02-26T11:33:51;19.60;;;17.80;;
57846;SDS011;43675;50.030;21.952;2024-02-26T11:36:18;19.00;;;17.30;;
57846;SDS011;43675;50.030;21.952;2024-02-26T11:38:46;19.10;;;17.40;;
57846;SDS011;43675;50.030;21.952;2024-02-26T11:41:13;19.20;;;17.50;;
57846;SDS011;43675;50.030;21.952;2024-02-26T11:46:29;18.80;;;17.20;;
57846;SDS011;43675;50.030;21.952;2024-02-26T11:49:00;21.50;;;19.50;;
57846;SDS011;43675;50.030;21.952;2024-02-26T11:51:32;22.40;;;20.30;;
57846;SDS011;43675;50.030;21.952;2024-02-26T11:54:07;22.20;;;20.20;;
57846;SDS011;43675;50.030;21.952;2024-02-26T11:56:34;21.60;;;19.60;;
57846;SDS011;43675;50.030;21.952;2024-02-26T11:59:05;20.80;;;18.90;;
57846;SDS011;43675;50.030;21.952;2024-02-26T12:04:22;19.20;;;17.60;;
57846;SDS011;43675;50.030;21.952;2024-02-26T12:12:02;18.50;;;17.00;;
57846;SDS011;43675;50.030;21.952;2024-02-26T12:14:31;19.50;;;17.50;;
57846;SDS011;43675;50.030;21.952;2024-02-26T12:16:59;18.30;;;16.70;;
57846;SDS011;43675;50.030;21.952;2024-02-26T12:19:27;19.50;;;17.90;;
57846;SDS011;43675;50.030;21.952;2024-02-26T12:21:54;19.30;;;17.40;;
57846;SDS011;43675;50.030;21.952;2024-02-26T12:24:20;20.30;;;18.50;;
57846;SDS011;43675;50.030;21.952;2024-02-26T12:26:47;25.50;;;19.00;;
57846;SDS011;43675;50.030;21.952;2024-02-26T12:29:14;20.00;;;18.30;;
57846;SDS011;43675;50.030;21.952;2024-02-26T12:31:40;19.20;;;17.70;;
57846;SDS011;43675;50.030;21.952;2024-02-26T12:34:08;20.00;;;18.30;;
57846;SDS011;43675;50.030;21.952;2024-02-26T12:36:35;20.60;;;18.80;;
57846;SDS011;43675;50.030;21.952;2024-02-26T12:39:02;20.60;;;18.60;;
57846;SDS011;43675;50.030;21.952;2024-02-26T12:41:29;22.30;;;20.20;;
57846;SDS011;43675;50.030;21.952;2024-02-26T12:43:57;20.90;;;19.00;;
57846;SDS011;43675;50.030;21.952;2024-02-26T12:46:23;20.40;;;18.60;;
57846;SDS011;43675;50.030;21.952;2024-02-26T12:48:50;20.90;;;18.40;;
57846;SDS011;43675;50.030;21.952;2024-02-26T12:51:17;18.60;;;17.00;;
57846;SDS011;43675;50.030;21.952;2024-02-26T12:53:44;18.10;;;16.60;;
57846;SDS011;43675;50.030;21.952;2024-02-26T12:56:12;18.40;;;16.90;;
57846;SDS011;43675;50.030;21.952;2024-02-26T12:58:45;18.50;;;17.00;;
57846;SDS011;43675;50.030;21.952;2024-02-26T13:01:16;18.00;;;16.30;;
57846;SDS011;43675;50.030;21.952;2024-02-26T13:03:45;18.30;;;16.80;;
57846;SDS011;43675;50.030;21.952;2024-02-26T13:06:12;18.10;;;16.50;;
57846;SDS011;43675;50.030;21.952;2024-02-26T13:08:39;18.40;;;16.70;;
57846;SDS011;43675;50.030;21.952;2024-02-26T13:11:06;18.50;;;16.90;;
57846;SDS011;43675;50.030;21.952;2024-02-26T13:13:33;17.70;;;16.10;;
57846;SDS011;43675;50.030;21.952;2024-02-26T13:16:03;18.30;;;16.70;;
57846;SDS011;43675;50.030;21.952;2024-02-26T13:18:31;17.90;;;16.40;;
57846;SDS011;43675;50.030;21.952;2024-02-26T13:21:14;18.00;;;16.40;;
57846;SDS011;43675;50.030;21.952;2024-02-26T13:23:41;18.50;;;16.90;;
57846;SDS011;43675;50.030;21.952;2024-02-26T13:26:11;19.20;;;17.30;;
57846;SDS011;43675;50.030;21.952;2024-02-26T13:28:38;21.10;;;19.20;;
57846;SDS011;43675;50.030;21.952;2024-02-26T13:31:05;19.70;;;17.70;;
57846;SDS011;43675;50.030;21.952;2024-02-26T13:33:31;22.00;;;17.80;;
57846;SDS011;43675;50.030;21.952;2024-02-26T13:35:58;20.50;;;18.50;;
57846;SDS011;43675;50.030;21.952;2024-02-26T13:38:26;20.50;;;18.30;;
57846;SDS011;43675;50.030;21.952;2024-02-26T13:40:54;20.10;;;18.10;;
57846;SDS011;43675;50.030;21.952;2024-02-26T13:43:21;20.30;;;18.70;;
57846;SDS011;43675;50.030;21.952;2024-02-26T13:45:47;19.80;;;18.30;;
57846;SDS011;43675;50.030;21.952;2024-02-26T13:48:14;20.40;;;18.60;;
57846;SDS011;43675;50.030;21.952;2024-02-26T13:50:41;20.30;;;18.60;;
57846;SDS011;43675;50.030;21.952;2024-02-26T13:53:08;20.40;;;18.40;;
57846;SDS011;43675;50.030;21.952;2024-02-26T13:55:35;19.80;;;18.00;;
57846;SDS011;43675;50.030;21.952;2024-02-26T13:58:08;19.30;;;17.70;;
57846;SDS011;43675;50.030;21.952;2024-02-26T14:00:38;20.40;;;18.70;;
57846;SDS011;43675;50.030;21.952;2024-02-26T14:03:05;17.50;;;16.20;;
57846;SDS011;43675;50.030;21.952;2024-02-26T14:05:32;19.60;;;18.00;;
57846;SDS011;43675;50.030;21.952;2024-02-26T14:07:58;19.40;;;17.60;;
57846;SDS011;43675;50.030;21.952;2024-02-26T14:10:25;18.90;;;17.00;;
57846;SDS011;43675;50.030;21.952;2024-02-26T14:12:51;19.80;;;17.90;;
57846;SDS011;43675;50.030;21.952;2024-02-26T14:15:18;18.80;;;17.00;;
57846;SDS011;43675;50.030;21.952;2024-02-26T14:17:44;18.40;;;16.80;;
57846;SDS011;43675;50.030;21.952;2024-02-26T14:20:11;20.20;;;18.30;;